Time;durP1;ratioP1;P1;durP2;ratioP2;P2;SDS_P1;SDS_P2;PMS_P1;PMS_P2;Temp;Humidity;BMP_temperature;BMP_pressure;BME280_temperature;BME280_humidity;BME280_pressure;Samples;Min_cycle;Max_cycle;Signal;HPM_P1;HPM_P2
2022/09/17 00:01:30;;;;;;;103.73;99.70;;;10.40;99.90;;;;;;4984077;28;20873;-81
2022/09/17 00:04:00;;;;;;;92.07;88.57;;;10.30;99.90;;;;;;4984190;28;20463;-82
2022/09/17 00:06:27;;;;;;;91.17;87.00;;;10.50;99.90;;;;;;4983671;28;20477;-82
2022/09/17 00:08:55;;;;;;;81.93;78.60;;;10.40;99.90;;;;;;4983883;28;20469;-82
2022/09/17 00:11:25;;;;;;;113.70;109.00;;;10.40;99.90;;;;;;4983330;28;20893;-82
2022/09/17 00:13:55;;;;;;;141.90;136.20;;;10.40;99.90;;;;;;4983956;28;20465;-82
2022/09/17 00:16:25;;;;;;;125.27;120.67;;;10.50;99.90;;;;;;4983584;28;20451;-82
2022/09/17 00:18:52;;;;;;;156.87;151.07;;;10.40;99.90;;;;;;4983456;28;20514;-82
2022/09/17 00:21:20;;;;;;;155.27;149.43;;;10.40;99.90;;;;;;4983495;28;20459;-82
2022/09/17 00:23:47;;;;;;;122.37;117.17;;;10.40;99.90;;;;;;4983697;28;20501;-82
2022/09/17 00:26:14;;;;;;;133.10;128.20;;;10.40;99.90;;;;;;4983344;28;20474;-82
2022/09/17 00:28:47;;;;;;;141.77;137.07;;;10.40;99.90;;;;;;4983785;28;20455;-82
2022/09/17 00:31:14;;;;;;;147.40;142.10;;;10.40;99.90;;;;;;4983915;28;20451;-82
2022/09/17 00:33:41;;;;;;;135.37;129.63;;;10.40;99.90;;;;;;4985918;28;20976;-82
2022/09/17 00:36:08;;;;;;;152.43;146.37;;;10.40;99.90;;;;;;4987110;28;20457;-83
2022/09/17 00:38:35;;;;;;;164.77;158.87;;;10.20;99.90;;;;;;4987710;28;20985;-82
2022/09/17 00:41:02;;;;;;;140.27;135.43;;;10.30;99.90;;;;;;4987616;28;20458;-82
2022/09/17 00:43:39;;;;;;;194.93;187.97;;;10.30;99.90;;;;;;4986935;28;21017;-82
2022/09/17 00:47:07;;;;;;;209.53;202.53;;;10.30;99.90;;;;;;4987087;28;20483;-81
2022/09/17 00:49:34;;;;;;;165.67;159.87;;;10.10;99.90;;;;;;4986691;28;20450;-81
2022/09/17 00:52:06;;;;;;;208.87;201.60;;;10.20;99.90;;;;;;4987515;28;20483;-82
2022/09/17 00:54:34;;;;;;;219.23;211.27;;;10.10;99.90;;;;;;4987116;28;20454;-81
2022/09/17 00:57:01;;;;;;;227.60;219.40;;;10.20;99.90;;;;;;4987321;28;20454;-81
2022/09/17 00:59:28;;;;;;;201.37;193.87;;;10.20;99.90;;;;;;4987591;28;20461;-82
2022/09/17 01:01:56;;;;;;;167.97;161.87;;;10.20;99.90;;;;;;4986676;28;20478;-82
2022/09/17 01:04:25;;;;;;;269.40;259.23;;;10.00;99.90;;;;;;4987160;28;20451;-81
2022/09/17 01:07:00;;;;;;;282.00;271.10;;;10.30;99.90;;;;;;4987351;28;20861;-82
2022/09/17 01:09:41;;;;;;;232.57;224.17;;;10.10;99.90;;;;;;4987397;28;20450;-83
2022/09/17 01:12:28;;;;;;;279.70;270.00;;;10.10;99.90;;;;;;4986728;28;20561;-81
2022/09/17 01:15:05;;;;;;;268.33;258.97;;;10.10;99.90;;;;;;4986822;28;20506;-81
2022/09/17 01:17:40;;;;;;;249.50;240.63;;;10.10;99.90;;;;;;4986711;28;20439;-81
2022/09/17 01:20:44;;;;;;;247.00;238.67;;;10.20;99.90;;;;;;4987242;28;20453;-82
2022/09/17 01:23:32;;;;;;;306.33;295.60;;;10.10;99.90;;;;;;4966182;28;20507;-81
2022/09/17 01:26:15;;;;;;;317.17;305.77;;;10.00;99.90;;;;;;4970718;28;20485;-82
2022/09/17 01:28:48;;;;;;;303.73;292.87;;;10.10;99.90;;;;;;4986408;28;20541;-81
2022/09/17 01:31:30;;;;;;;289.20;278.83;;;10.20;99.90;;;;;;4986870;28;20947;-81
2022/09/17 01:34:02;;;;;;;162.30;156.80;;;10.20;99.90;;;;;;4986092;28;20458;-82
2022/09/17 01:36:41;;;;;;;204.83;197.43;;;10.30;99.90;;;;;;4986438;28;20458;-82
2022/09/17 01:39:24;;;;;;;183.03;175.83;;;10.20;99.90;;;;;;4985904;28;20466;-82
2022/09/17 01:41:54;;;;;;;221.83;213.73;;;10.20;99.90;;;;;;4985763;28;20478;-82
2022/09/17 01:44:27;;;;;;;223.77;215.27;;;10.20;99.90;;;;;;4985588;28;20451;-81
2022/09/17 01:47:03;;;;;;;231.00;223.13;;;10.30;99.90;;;;;;4985175;28;20484;-82
2022/09/17 01:49:30;;;;;;;251.83;242.43;;;10.20;99.90;;;;;;4986127;28;20459;-82
2022/09/17 01:51:58;;;;;;;285.67;275.67;;;10.10;99.90;;;;;;4985902;28;20541;-81
2022/09/17 01:54:29;;;;;;;319.53;307.53;;;10.10;99.90;;;;;;4985794;28;20535;-81
2022/09/17 01:57:01;;;;;;;365.13;351.73;;;9.90;99.90;;;;;;4985394;28;20514;-81
2022/09/17 01:59:32;;;;;;;388.27;374.27;;;9.90;99.90;;;;;;4985561;28;20494;-82
2022/09/17 02:02:04;;;;;;;351.63;339.63;;;9.80;99.90;;;;;;4985757;28;20481;-81
2022/09/17 02:04:36;;;;;;;459.37;440.47;;;10.10;99.90;;;;;;4986023;28;20643;-81
2022/09/17 02:07:07;;;;;;;457.13;438.47;;;10.00;99.90;;;;;;4985586;28;20479;-82
2022/09/17 02:09:41;;;;;;;450.47;432.27;;;10.00;99.90;;;;;;4984996;28;20987;-81
2022/09/17 02:12:13;;;;;;;425.97;408.97;;;10.00;99.90;;;;;;4985388;28;20479;-81
2022/09/17 02:14:46;;;;;;;391.13;376.03;;;10.20;99.90;;;;;;4985385;28;20451;-82
2022/09/17 02:17:19;;;;;;;375.47;360.50;;;10.10;99.90;;;;;;4985351;28;20856;-82
2022/09/17 02:19:46;;;;;;;348.60;335.80;;;10.20;99.90;;;;;;4985096;28;20975;-81
2022/09/17 02:22:22;;;;;;;349.40;336.13;;;10.20;99.90;;;;;;4985460;28;20470;-81
2022/09/17 02:24:59;;;;;;;340.33;326.50;;;10.20;99.90;;;;;;4985324;28;20454;-82
2022/09/17 02:27:37;;;;;;;305.33;293.10;;;10.30;99.90;;;;;;4985051;28;20873;-82
2022/09/17 02:30:05;;;;;;;293.87;282.87;;;10.20;99.90;;;;;;4985468;28;20462;-82
2022/09/17 02:32:33;;;;;;;297.77;285.40;;;10.30;99.90;;;;;;4985943;28;20509;-81
2022/09/17 02:35:00;;;;;;;279.93;268.73;;;10.40;99.90;;;;;;4985366;28;20549;-82
2022/09/17 02:37:27;;;;;;;260.57;250.37;;;10.40;99.90;;;;;;4985231;28;20447;-82
2022/09/17 02:39:54;;;;;;;245.53;236.40;;;10.30;99.90;;;;;;4985027;28;21012;-82
2022/09/17 02:42:28;;;;;;;239.47;231.27;;;10.40;99.90;;;;;;4986356;28;20843;-81
2022/09/17 02:45:04;;;;;;;256.70;247.87;;;10.40;99.90;;;;;;4984959;28;20455;-81
2022/09/17 02:48:00;;;;;;;216.77;209.40;;;10.40;99.90;;;;;;4984884;28;20853;-81
2022/09/17 02:50:40;;;;;;;181.50;175.10;;;10.30;99.90;;;;;;4985653;28;21046;-81
2022/09/17 02:53:19;;;;;;;154.27;147.87;;;10.40;99.90;;;;;;4985026;28;20482;-82
2022/09/17 02:55:52;;;;;;;158.93;152.93;;;10.50;99.90;;;;;;4984121;28;20458;-82
2022/09/17 02:58:25;;;;;;;155.77;149.67;;;10.60;99.90;;;;;;4984921;28;20498;-81
2022/09/17 03:00:53;;;;;;;134.73;129.33;;;10.60;99.90;;;;;;4984707;28;20458;-81
2022/09/17 03:03:29;;;;;;;79.60;76.23;;;10.50;99.90;;;;;;4984127;28;20999;-82
2022/09/17 03:05:56;;;;;;;99.13;95.37;;;10.60;99.90;;;;;;4984746;28;20469;-82
2022/09/17 03:08:28;;;;;;;92.93;89.13;;;10.60;99.90;;;;;;4983881;28;20895;-82
2022/09/17 03:10:55;;;;;;;80.30;77.10;;;10.60;99.90;;;;;;4984232;28;20470;-82
2022/09/17 03:13:22;;;;;;;79.60;76.37;;;10.60;99.90;;;;;;4984571;28;20475;-82
2022/09/17 03:15:49;;;;;;;79.27;75.27;;;10.50;99.90;;;;;;4983466;28;20465;-82
2022/09/17 03:18:15;;;;;;;109.80;104.53;;;10.50;99.90;;;;;;4984808;28;20483;-82
2022/09/17 03:20:45;;;;;;;79.07;74.87;;;10.40;99.90;;;;;;4984589;28;20466;-81
2022/09/17 03:23:12;;;;;;;82.33;78.23;;;10.60;99.90;;;;;;4986077;28;20558;-81
2022/09/17 03:25:38;;;;;;;95.27;91.07;;;10.60;99.90;;;;;;4993205;28;20451;-82
2022/09/17 03:28:05;;;;;;;100.07;95.93;;;10.50;99.90;;;;;;4984409;28;20463;-81
2022/09/17 03:30:32;;;;;;;125.53;120.90;;;10.60;99.90;;;;;;4984588;28;20538;-81
2022/09/17 03:32:59;;;;;;;101.10;96.93;;;10.50;99.90;;;;;;4984123;28;20469;-81
2022/09/17 03:35:26;;;;;;;71.83;68.80;;;10.50;99.90;;;;;;4983277;28;20458;-81
2022/09/17 03:37:54;;;;;;;56.07;53.37;;;10.50;99.90;;;;;;4983383;28;20542;-81
2022/09/17 03:40:20;;;;;;;52.73;49.73;;;10.50;99.90;;;;;;4982867;28;20458;-81
2022/09/17 03:42:47;;;;;;;91.60;87.60;;;10.50;99.90;;;;;;4981163;28;20477;-81
2022/09/17 03:45:14;;;;;;;115.03;110.23;;;10.50;99.90;;;;;;4980522;28;20455;-81
2022/09/17 03:47:41;;;;;;;102.37;97.97;;;10.40;99.90;;;;;;4962030;29;20490;-81
2022/09/17 03:50:08;;;;;;;156.77;149.90;;;10.40;99.90;;;;;;4962177;29;20462;-81
2022/09/17 03:56:02;;;;;;;;;;;;;;;;;;;;;
2022/09/17 03:58:31;;;;;;;222.90;215.13;;;10.00;99.90;;;;;;4979052;28;21052;-81
2022/09/17 04:01:10;;;;;;;268.27;258.87;;;10.00;99.90;;;;;;4981709;28;20522;-81
2022/09/17 04:03:37;;;;;;;278.97;268.73;;;9.90;99.90;;;;;;4982078;28;20550;-80
2022/09/17 04:06:03;;;;;;;315.00;302.93;;;9.90;99.90;;;;;;4980057;28;20451;-82
2022/09/17 04:08:49;;;;;;;;;;;;;;;;;;;;;
2022/09/17 04:11:27;;;;;;;373.33;360.27;;;9.80;99.90;;;;;;4980695;28;20478;-81
2022/09/17 04:13:54;;;;;;;384.00;369.23;;;9.80;99.90;;;;;;4980704;28;20458;-80
2022/09/17 04:16:21;;;;;;;418.50;402.30;;;9.80;99.90;;;;;;4980662;28;20474;-81
2022/09/17 04:18:50;;;;;;;439.77;423.47;;;9.80;99.90;;;;;;4981467;28;20455;-81
2022/09/17 04:21:32;;;;;;;451.00;434.33;;;9.70;99.90;;;;;;4982789;28;20462;-81
2022/09/17 04:24:07;;;;;;;446.03;430.13;;;9.70;99.90;;;;;;4982877;28;20455;-84
2022/09/17 04:26:35;;;;;;;477.27;457.90;;;9.80;99.90;;;;;;4982254;28;20841;-79
2022/09/17 04:29:02;;;;;;;410.70;394.83;;;9.80;99.90;;;;;;4981654;28;21062;-82
2022/09/17 04:31:29;;;;;;;373.07;358.77;;;10.00;99.90;;;;;;4979913;28;20467;-82
2022/09/17 04:33:56;;;;;;;319.90;307.33;;;10.00;99.90;;;;;;4981065;28;20466;-81
2022/09/17 04:36:22;;;;;;;319.50;307.73;;;10.00;99.90;;;;;;4981569;28;20449;-83
2022/09/17 04:38:49;;;;;;;310.17;298.67;;;10.00;99.90;;;;;;4981948;28;20538;-82
2022/09/17 04:41:16;;;;;;;318.07;307.07;;;9.90;99.90;;;;;;4981611;28;20450;-83
2022/09/17 04:43:45;;;;;;;286.67;276.37;;;9.90;99.90;;;;;;4980990;28;20463;-81
2022/09/17 04:46:12;;;;;;;294.40;283.37;;;10.00;99.90;;;;;;4981055;28;20490;-82
2022/09/17 04:48:39;;;;;;;333.97;321.77;;;9.90;99.90;;;;;;4980438;28;20455;-83
2022/09/17 04:51:06;;;;;;;329.73;317.47;;;9.80;99.90;;;;;;4984370;28;22672;-79
2022/09/17 04:53:33;;;;;;;323.40;311.43;;;9.90;99.90;;;;;;4975537;28;20451;-78
2022/09/17 05:02:10;;;;;;;286.53;275.23;;;10.00;99.90;;;;;;4965493;28;20577;-81
2022/09/17 05:04:37;;;;;;;279.47;268.20;;;9.90;99.90;;;;;;4983423;28;20456;-82
2022/09/17 05:07:05;;;;;;;269.70;259.53;;;10.00;99.90;;;;;;4982882;28;20478;-81
2022/09/17 05:09:32;;;;;;;289.23;278.27;;;9.90;99.90;;;;;;4996135;28;20450;-82
2022/09/17 05:11:59;;;;;;;301.13;290.33;;;9.90;99.90;;;;;;5000472;28;20490;-82
2022/09/17 05:14:26;;;;;;;315.17;304.47;;;9.90;99.90;;;;;;5000026;28;20457;-82
2022/09/17 05:16:52;;;;;;;331.17;319.57;;;10.00;99.90;;;;;;5002524;28;20454;-83
2022/09/17 05:19:20;;;;;;;347.70;335.60;;;9.80;99.90;;;;;;5004889;28;20454;-82
2022/09/17 05:21:47;;;;;;;387.73;373.33;;;9.90;99.90;;;;;;4989828;28;21030;-82
2022/09/17 05:24:14;;;;;;;395.10;381.13;;;9.80;99.90;;;;;;4985466;28;20455;-82
2022/09/17 05:27:02;;;;;;;411.60;396.63;;;9.90;99.90;;;;;;4984657;28;20485;-82
2022/09/17 05:29:28;;;;;;;424.80;408.87;;;9.90;99.90;;;;;;4979955;28;20525;-83
2022/09/17 05:32:19;;;;;;;447.50;430.20;;;9.80;99.90;;;;;;4982907;28;20478;-82
2022/09/17 05:35:15;;;;;;;447.50;430.70;;;9.90;99.90;;;;;;4961940;28;20530;-82
2022/09/17 05:37:49;;;;;;;430.47;413.30;;;10.00;99.90;;;;;;4976364;28;20538;-83
2022/09/17 05:40:30;;;;;;;366.27;352.43;;;10.10;99.90;;;;;;4984389;28;20462;-82
2022/09/17 05:43:14;;;;;;;340.73;328.10;;;10.50;99.90;;;;;;4983553;28;20540;-83
2022/09/17 05:46:08;;;;;;;280.90;271.00;;;10.40;99.90;;;;;;4983866;28;20483;-81
2022/09/17 05:48:56;;;;;;;235.13;226.00;;;10.40;99.90;;;;;;4979782;28;20505;-83
2022/09/17 05:51:39;;;;;;;191.63;184.73;;;10.60;99.90;;;;;;4910992;29;20494;-82
2022/09/17 06:00:23;;;;;;;67.23;63.23;;;11.10;99.90;;;;;;4957123;29;20460;-82
2022/09/17 06:03:23;;;;;;;;;;;;;;;;;;;;;
2022/09/17 06:06:16;;;;;;;50.53;47.23;;;11.10;99.90;;;;;;4979159;28;20451;-83
2022/09/17 06:09:16;;;;;;;33.70;30.70;;;11.10;99.90;;;;;;4984304;28;20467;-82
2022/09/17 06:15:47;;;;;;;21.27;13.50;;;11.30;99.90;;;;;;4907335;29;20450;-82
2022/09/17 06:18:15;;;;;;;16.83;8.30;;;11.20;99.90;;;;;;4870166;29;20459;-82
2022/09/17 06:20:45;;;;;;;17.50;8.13;;;11.30;99.90;;;;;;4887265;29;20471;-82
2022/09/17 06:27:03;;;;;;;15.63;7.70;;;11.10;99.90;;;;;;4829364;29;21048;-82
2022/09/17 06:30:54;;;;;;;;;;;;;;;;;;;;;
2022/09/17 06:40:29;;;;;;;19.73;11.17;;;10.70;99.90;;;;;;4975131;28;20461;-82
2022/09/17 06:43:19;;;;;;;17.60;10.27;;;10.70;99.90;;;;;;4982597;28;20470;-82
2022/09/17 06:46:01;;;;;;;14.60;11.97;;;10.80;99.90;;;;;;4983141;28;20542;-83
2022/09/17 06:48:51;;;;;;;15.30;13.63;;;10.90;99.90;;;;;;4982790;28;20998;-83
2022/09/17 06:54:24;;;;;;;16.70;10.20;;;10.90;99.90;;;;;;4964728;28;20451;-82
2022/09/17 06:56:53;;;;;;;14.73;8.50;;;10.90;99.90;;;;;;4982132;28;20455;-82
2022/09/17 06:59:27;;;;;;;10.97;8.77;;;11.10;99.90;;;;;;4983018;28;20455;-82
2022/09/17 07:02:07;;;;;;;14.87;13.37;;;11.00;99.90;;;;;;4982947;28;20479;-82
2022/09/17 07:04:52;;;;;;;12.03;10.63;;;11.10;99.90;;;;;;4982763;28;20455;-83
2022/09/17 07:07:33;;;;;;;11.47;8.90;;;11.40;99.90;;;;;;4984020;28;20481;-83
2022/09/17 07:10:16;;;;;;;;;;;;;;;;;;;;;
2022/09/17 07:12:54;;;;;;;10.03;5.50;;;11.70;99.90;;;;;;4982720;28;20518;-83
2022/09/17 07:15:29;;;;;;;10.60;4.80;;;11.70;99.90;;;;;;4982544;28;20464;-84
2022/09/17 07:18:13;;;;;;;15.13;3.13;;;11.90;99.90;;;;;;4982080;28;20461;-84
2022/09/17 07:21:20;;;;;;;9.80;3.07;;;12.10;99.90;;;;;;4982415;28;20455;-83
2022/09/17 07:24:09;;;;;;;8.67;2.60;;;12.00;99.90;;;;;;4988848;28;20449;-82
2022/09/17 07:26:49;;;;;;;8.00;3.10;;;12.20;99.90;;;;;;5003672;28;20508;-84
2022/09/17 07:29:17;;;;;;;8.63;2.53;;;12.40;99.90;;;;;;4985104;28;20474;-83
2022/09/17 07:32:13;;;;;;;;;;;;;;;;;;;;;
2022/09/17 07:35:21;;;;;;;10.33;2.83;;;12.40;99.90;;;;;;4981597;28;20490;-84
2022/09/17 07:41:12;;;;;;;9.80;2.50;;;12.80;98.80;;;;;;4898657;29;20917;-84
2022/09/17 07:47:16;;;;;;;12.80;2.03;;;13.20;97.10;;;;;;4974619;28;20842;-85
2022/09/17 07:50:36;;;;;;;;;;;;;;;;;;;;;
2022/09/17 07:56:26;;;;;;;8.67;2.23;;;13.60;93.10;;;;;;4957773;28;20470;-86
2022/09/17 07:58:55;;;;;;;9.27;1.92;;;13.70;92.50;;;;;;4975335;28;20465;-83
2022/09/17 08:04:16;;;;;;;6.20;1.37;;;13.80;92.10;;;;;;4977592;28;20451;-79
2022/09/17 08:07:00;;;;;;;10.60;1.77;;;13.80;91.30;;;;;;4974813;28;20832;-86
2022/09/17 08:09:54;;;;;;;13.60;2.37;;;13.70;91.90;;;;;;4974370;28;20483;-85
2022/09/17 08:12:24;;;;;;;14.33;2.20;;;13.70;92.50;;;;;;4980813;28;20566;-84
2022/09/17 08:14:54;;;;;;;6.20;2.13;;;13.60;91.10;;;;;;4977590;28;20459;-83
2022/09/17 08:17:21;;;;;;;7.93;1.50;;;13.60;91.80;;;;;;4960004;28;20462;-80
2022/09/17 08:19:49;;;;;;;8.03;2.03;;;13.60;91.80;;;;;;4975675;28;20447;-85
2022/09/17 08:22:15;;;;;;;6.27;1.27;;;13.90;91.00;;;;;;4977816;28;20863;-85
2022/09/17 08:24:44;;;;;;;12.53;1.93;;;14.20;85.80;;;;;;4975559;28;20456;-85
2022/09/17 08:27:12;;;;;;;9.17;2.00;;;14.30;90.00;;;;;;4976399;28;20908;-85
2022/09/17 08:29:38;;;;;;;8.13;2.20;;;14.90;88.10;;;;;;4974139;28;20458;-85
2022/09/17 08:32:05;;;;;;;7.20;1.50;;;15.10;89.60;;;;;;4977098;28;20532;-85
2022/09/17 08:34:32;;;;;;;7.27;2.10;;;15.10;84.20;;;;;;4979241;28;20834;-84
2022/09/17 08:37:03;;;;;;;6.90;1.80;;;14.90;81.40;;;;;;4982160;28;20507;-84
2022/09/17 08:39:29;;;;;;;8.03;1.67;;;15.10;79.50;;;;;;4981112;28;20448;-84
2022/09/17 08:42:06;;;;;;;11.03;2.13;;;15.00;83.50;;;;;;4980914;28;20485;-85
2022/09/17 08:44:40;;;;;;;7.30;1.23;;;14.90;83.90;;;;;;4979864;28;20459;-84
2022/09/17 08:47:17;;;;;;;8.83;1.93;;;14.80;83.90;;;;;;4980944;28;20460;-84
2022/09/17 08:49:49;;;;;;;11.17;1.63;;;15.10;80.70;;;;;;4981068;28;20446;-84
2022/09/17 08:52:43;;;;;;;4.97;1.10;;;15.00;79.10;;;;;;4977982;28;20477;-85
2022/09/17 08:55:23;;;;;;;8.40;1.20;;;15.10;80.60;;;;;;4979207;28;21129;-85
2022/09/17 08:57:58;;;;;;;11.33;1.63;;;15.20;80.20;;;;;;4984891;28;20457;-85
2022/09/17 09:00:26;;;;;;;19.80;2.17;;;14.90;79.10;;;;;;4983031;28;20493;-85
2022/09/17 09:03:10;;;;;;;11.43;2.50;;;15.10;81.60;;;;;;4980243;28;20472;-84
2022/09/17 09:05:43;;;;;;;8.30;1.40;;;15.00;77.60;;;;;;4979020;28;20521;-84
2022/09/17 09:08:28;;;;;;;6.03;1.30;;;14.80;77.70;;;;;;4980618;28;20483;-85
2022/09/17 09:10:59;;;;;;;5.60;1.30;;;15.10;78.10;;;;;;4979920;28;20455;-85
2022/09/17 09:13:31;;;;;;;11.07;1.43;;;15.60;74.20;;;;;;4980484;28;20486;-84
2022/09/17 09:16:00;;;;;;;6.67;1.67;;;15.70;81.00;;;;;;4981693;28;20469;-84
2022/09/17 09:18:31;;;;;;;10.47;1.77;;;16.10;73.30;;;;;;4981230;28;20452;-84
2022/09/17 09:21:25;;;;;;;8.17;1.67;;;16.00;71.70;;;;;;4980761;28;20481;-86
2022/09/17 09:23:57;;;;;;;10.93;1.80;;;16.70;69.70;;;;;;4982491;28;20519;-88
2022/09/17 09:26:47;;;;;;;;;;;;;;;;;;;;;
2022/09/17 09:29:21;;;;;;;5.00;1.10;;;17.10;67.50;;;;;;4979924;28;20487;-79
2022/09/17 09:32:19;;;;;;;7.60;1.30;;;16.80;65.80;;;;;;4978419;28;20477;-86
2022/09/17 09:34:51;;;;;;;8.83;1.50;;;16.90;61.50;;;;;;4979045;28;20452;-85
2022/09/17 09:37:22;;;;;;;5.10;1.03;;;16.60;62.90;;;;;;4981889;28;20456;-84
2022/09/17 09:39:52;;;;;;;7.33;1.40;;;16.60;62.80;;;;;;4982797;28;20455;-84
2022/09/17 09:42:40;;;;;;;7.93;2.60;;;16.50;66.00;;;;;;4982864;28;20482;-84
2022/09/17 09:45:46;;;;;;;11.13;1.63;;;16.70;67.10;;;;;;4976797;28;20453;-84
2022/09/17 09:48:27;;;;;;;7.53;1.00;;;16.50;62.30;;;;;;4976098;28;21006;-84
2022/09/17 09:51:19;;;;;;;6.10;1.47;;;16.70;64.70;;;;;;4978616;28;20460;-85
2022/09/17 09:54:20;;;;;;;6.23;1.50;;;16.80;62.10;;;;;;4977600;28;20473;-85
2022/09/17 10:00:27;;;;;;;;;;;;;;;;;;;;;
2022/09/17 10:03:07;;;;;;;7.73;1.23;;;17.70;59.10;;;;;;4978159;28;20494;-84
2022/09/17 10:05:36;;;;;;;5.80;1.30;;;17.60;59.70;;;;;;4976202;28;20460;-84
2022/09/17 10:08:23;;;;;;;;;;;;;;;;;;;;;
2022/09/17 10:10:59;;;;;;;9.23;1.27;;;17.30;60.40;;;;;;4975583;28;20462;-84
2022/09/17 10:13:41;;;;;;;;;;;;;;;;;;;;;
2022/09/17 10:16:27;;;;;;;6.03;1.20;;;16.60;60.60;;;;;;4978067;28;20461;-84
2022/09/17 10:19:24;;;;;;;6.63;1.20;;;16.20;63.60;;;;;;4979265;28;20485;-83
2022/09/17 10:21:59;;;;;;;9.27;1.80;;;16.00;62.80;;;;;;4980009;28;20897;-84
2022/09/17 10:24:55;;;;;;;5.10;0.90;;;16.90;58.90;;;;;;4979268;28;20471;-84
2022/09/17 10:27:58;;;;;;;6.70;1.60;;;17.10;56.00;;;;;;4918509;29;20870;-84
2022/09/17 10:33:22;;;;;;;8.83;1.47;;;16.90;59.00;;;;;;4968102;28;20482;-85
2022/09/17 10:36:08;;;;;;;7.70;1.00;;;17.50;55.90;;;;;;4978462;28;20845;-84
2022/09/17 10:38:43;;;;;;;5.27;1.40;;;17.70;51.90;;;;;;4978915;28;20483;-84
2022/09/17 10:41:23;;;;;;;5.50;1.10;;;17.80;48.70;;;;;;4978662;28;20485;-83
2022/09/17 10:43:51;;;;;;;10.57;1.50;;;18.40;44.00;;;;;;4977579;28;20472;-84
2022/09/17 10:46:32;;;;;;;7.90;1.20;;;18.10;49.60;;;;;;4978301;28;20259;-84
2022/09/17 10:49:10;;;;;;;7.87;1.50;;;18.40;48.80;;;;;;4978475;28;20457;-83
2022/09/17 10:51:41;;;;;;;5.30;1.20;;;18.40;47.50;;;;;;4979549;28;20514;-84
2022/09/17 10:54:58;;;;;;;4.10;0.90;;;19.00;48.80;;;;;;4977330;28;20458;-84
2022/09/17 10:57:37;;;;;;;10.90;1.20;;;18.40;52.90;;;;;;4943829;28;20867;-84
2022/09/17 11:00:23;;;;;;;;;;;;;;;;;;;;;
2022/09/17 11:03:19;;;;;;;5.73;1.23;;;17.40;56.70;;;;;;4977288;28;20488;-84
2022/09/17 11:06:07;;;;;;;8.43;1.43;;;17.10;60.70;;;;;;4977394;28;20454;-84
2022/09/17 11:08:49;;;;;;;8.13;1.47;;;18.00;55.90;;;;;;4977803;28;20455;-84
2022/09/17 11:11:31;;;;;;;6.50;1.23;;;19.00;49.60;;;;;;4977332;28;20462;-84
2022/09/17 11:14:10;;;;;;;11.63;2.23;;;18.50;53.40;;;;;;4975978;28;20499;-85
2022/09/17 11:16:43;;;;;;;9.17;1.30;;;18.30;48.70;;;;;;4976598;28;20518;-84
2022/09/17 11:19:35;;;;;;;5.87;1.00;;;19.40;49.10;;;;;;4976452;28;20483;-84
2022/09/17 11:22:23;;;;;;;7.63;1.00;;;18.40;45.30;;;;;;4976415;28;20478;-84
2022/09/17 11:25:16;;;;;;;5.03;1.13;;;16.70;53.80;;;;;;4978067;28;20445;-84
2022/09/17 11:27:55;;;;;;;6.00;1.07;;;15.40;62.50;;;;;;4979753;28;20469;-83
2022/09/17 11:30:24;;;;;;;5.80;1.67;;;14.80;69.50;;;;;;4978822;28;20483;-82
2022/09/17 11:33:28;;;;;;;7.17;1.90;;;13.80;88.60;;;;;;4979459;28;21069;-81
2022/09/17 11:35:59;;;;;;;6.57;1.20;;;13.20;91.40;;;;;;4981016;28;20467;-81
2022/09/17 11:38:34;;;;;;;5.47;0.80;;;12.30;99.90;;;;;;4980937;28;20489;-82
2022/09/17 11:41:06;;;;;;;5.23;1.13;;;12.20;99.90;;;;;;4980548;28;20454;-82
2022/09/17 11:43:36;;;;;;;6.10;1.40;;;12.90;99.90;;;;;;4980107;28;20480;-81
2022/09/17 11:46:08;;;;;;;4.17;1.13;;;13.80;99.90;;;;;;4980231;28;20461;-82
2022/09/17 11:48:46;;;;;;;4.47;0.97;;;14.50;99.90;;;;;;4979629;28;20458;-82
2022/09/17 11:51:21;;;;;;;4.83;1.30;;;14.80;97.40;;;;;;4978038;28;20460;-82
2022/09/17 11:53:53;;;;;;;5.73;1.10;;;15.30;94.10;;;;;;4977579;28;20469;-82
2022/09/17 11:56:25;;;;;;;5.73;1.40;;;15.90;89.80;;;;;;4977298;28;20877;-82
2022/09/17 11:58:59;;;;;;;7.07;1.23;;;16.50;90.70;;;;;;4977679;28;20569;-82
2022/09/17 12:01:36;;;;;;;4.80;1.10;;;16.90;83.20;;;;;;4976968;28;20466;-82
2022/09/17 12:04:29;;;;;;;5.23;2.40;;;17.20;73.80;;;;;;4977057;28;20487;-82
2022/09/17 12:07:08;;;;;;;6.23;1.20;;;16.90;75.30;;;;;;4975209;28;20463;-82
2022/09/17 12:09:38;;;;;;;7.07;1.40;;;16.60;79.00;;;;;;4975282;28;20822;-82
2022/09/17 12:12:14;;;;;;;5.73;0.93;;;17.10;77.20;;;;;;4971890;28;20211;-85
2022/09/17 12:14:47;;;;;;;5.17;1.30;;;16.40;77.10;;;;;;4976621;28;20827;-83
2022/09/17 12:17:21;;;;;;;8.23;1.23;;;16.90;76.80;;;;;;4976350;28;20461;-82
2022/09/17 12:19:54;;;;;;;6.00;1.60;;;17.20;77.90;;;;;;4977080;28;20479;-82
2022/09/17 12:22:25;;;;;;;7.10;1.47;;;18.00;72.00;;;;;;4976755;28;20472;-84
2022/09/17 12:24:53;;;;;;;7.90;1.50;;;18.30;65.80;;;;;;4977061;28;20455;-83
2022/09/17 12:27:36;;;;;;;6.27;1.40;;;18.50;67.40;;;;;;4977676;28;20454;-82
2022/09/17 12:30:10;;;;;;;9.10;1.20;;;18.20;64.50;;;;;;4978168;28;20478;-81
2022/09/17 12:33:00;;;;;;;5.50;1.63;;;16.90;74.50;;;;;;4975087;28;20507;-82
2022/09/17 12:36:01;;;;;;;8.03;1.23;;;15.80;78.60;;;;;;4976089;28;20534;-81
2022/09/17 12:38:53;;;;;;;6.13;1.23;;;15.20;84.80;;;;;;4933629;28;20488;-82
2022/09/17 12:41:24;;;;;;;5.70;1.43;;;15.20;91.60;;;;;;4975680;28;20460;-82
2022/09/17 12:44:11;;;;;;;6.20;1.47;;;15.70;89.50;;;;;;4975420;28;20459;-81
2022/09/17 12:46:55;;;;;;;5.13;1.50;;;15.60;82.00;;;;;;4976437;28;20460;-81
2022/09/17 12:49:53;;;;;;;4.47;1.27;;;15.40;79.40;;;;;;4963753;28;20472;-80
2022/09/17 12:52:30;;;;;;;5.20;1.77;;;15.30;84.60;;;;;;4958726;28;21095;-82
2022/09/17 12:55:19;;;;;;;6.40;1.57;;;15.50;82.00;;;;;;4976318;28;20459;-82
2022/09/17 12:57:52;;;;;;;8.17;1.77;;;16.40;78.20;;;;;;4976636;28;20958;-82
2022/09/17 13:00:21;;;;;;;4.80;1.10;;;17.10;72.30;;;;;;4976754;28;20474;-81
2022/09/17 13:02:54;;;;;;;4.33;1.00;;;15.20;87.80;;;;;;4977004;28;20556;-83
2022/09/17 13:05:43;;;;;;;3.87;0.87;;;11.70;99.90;;;;;;4978571;28;20461;-83
2022/09/17 13:08:30;;;;;;;6.93;1.20;;;11.00;99.90;;;;;;4978731;28;20458;-83
2022/09/17 13:11:32;;;;;;;6.50;1.20;;;10.60;99.90;;;;;;4978152;28;20471;-84
2022/09/17 13:14:05;;;;;;;6.57;1.83;;;10.40;99.90;;;;;;4971908;28;20458;-84
2022/09/17 13:16:40;;;;;;;5.20;1.90;;;10.60;99.90;;;;;;4975528;28;20455;-84
2022/09/17 13:19:24;;;;;;;5.50;1.60;;;10.60;99.90;;;;;;4976447;28;20456;-83
2022/09/17 13:21:54;;;;;;;10.47;5.90;;;11.60;99.90;;;;;;4980315;28;20533;-83
2022/09/17 13:24:23;;;;;;;6.33;2.90;;;12.20;99.90;;;;;;4981193;28;20457;-84
2022/09/17 13:26:52;;;;;;;7.00;1.40;;;11.80;99.90;;;;;;4980413;28;20638;-83
2022/09/17 13:29:57;;;;;;;7.23;6.37;;;11.40;99.90;;;;;;4982524;28;20999;-83
2022/09/17 13:32:50;;;;;;;65.77;63.27;;;11.40;99.90;;;;;;4979447;28;20494;-84
2022/09/17 13:35:46;;;;;;;3.40;1.50;;;12.50;99.90;;;;;;4980386;28;21063;-82
2022/09/17 13:38:13;;;;;;;3.50;1.70;;;13.10;99.90;;;;;;4979819;28;20452;-83
2022/09/17 13:40:40;;;;;;;3.50;1.80;;;13.80;99.90;;;;;;4986623;28;20453;-84
2022/09/17 13:43:10;;;;;;;3.50;1.70;;;14.80;99.90;;;;;;4987234;28;20473;-84
2022/09/17 13:46:19;;;;;;;3.90;3.20;;;15.60;99.90;;;;;;4986880;28;20480;-82
2022/09/17 13:48:55;;;;;;;3.60;2.10;;;16.50;99.90;;;;;;4936023;28;20462;-83
2022/09/17 13:51:46;;;;;;;3.47;1.40;;;17.20;90.20;;;;;;4980658;28;20453;-81
2022/09/17 13:54:15;;;;;;;3.30;0.90;;;17.30;90.60;;;;;;4979934;28;20452;-81
2022/09/17 13:56:45;;;;;;;3.90;1.50;;;17.10;79.10;;;;;;4977728;28;20459;-82
2022/09/17 13:59:16;;;;;;;4.07;1.57;;;17.90;76.50;;;;;;4978832;28;20523;-82
2022/09/17 14:02:24;;;;;;;3.30;0.70;;;17.60;73.70;;;;;;4977768;28;20514;-82
2022/09/17 14:04:54;;;;;;;4.27;1.03;;;17.10;75.20;;;;;;4979847;28;20447;-83
2022/09/17 14:07:47;;;;;;;3.30;0.70;;;16.80;77.00;;;;;;4979211;28;20451;-85
2022/09/17 14:10:36;;;;;;;3.30;0.60;;;16.30;79.10;;;;;;4979446;28;20497;-81
2022/09/17 14:13:21;;;;;;;3.73;1.17;;;15.40;81.90;;;;;;4979366;28;20499;-82
2022/09/17 14:16:02;;;;;;;3.30;0.60;;;14.40;99.90;;;;;;4979436;28;20462;-84
2022/09/17 14:18:42;;;;;;;3.30;0.70;;;12.70;99.90;;;;;;4982242;28;21002;-83
2022/09/17 14:21:25;;;;;;;3.20;0.70;;;11.40;99.90;;;;;;4975220;28;20447;-84
2022/09/17 14:23:56;;;;;;;3.27;0.70;;;13.90;99.90;;;;;;4959735;29;20456;-83
2022/09/17 14:26:35;;;;;;;3.30;0.67;;;13.90;99.90;;;;;;4974760;28;20455;-85